sensor_id;sensor_type;location;lat;lon;timestamp;P1;durP1;ratioP1;P2;durP2;ratioP2
4089;SDS011;2059;48.538;12.146;2022-11-20T00:00:39;22.90;;;16.17;;
4089;SDS011;2059;48.538;12.146;2022-11-20T00:05:41;19.33;;;15.37;;
4089;SDS011;2059;48.538;12.146;2022-11-20T00:10:44;21.10;;;16.20;;
4089;SDS011;2059;48.538;12.146;2022-11-20T00:15:46;20.83;;;14.20;;
4089;SDS011;2059;48.538;12.146;2022-11-20T00:20:48;20.40;;;15.53;;
4089;SDS011;2059;48.538;12.146;2022-11-20T00:25:51;18.53;;;13.10;;
4089;SDS011;2059;48.538;12.146;2022-11-20T00:30:54;19.47;;;13.73;;
4089;SDS011;2059;48.538;12.146;2022-11-20T00:36:02;17.37;;;13.50;;
4089;SDS011;2059;48.538;12.146;2022-11-20T00:41:06;18.47;;;13.73;;
4089;SDS011;2059;48.538;12.146;2022-11-20T00:46:10;16.97;;;12.93;;
4089;SDS011;2059;48.538;12.146;2022-11-20T00:51:15;18.00;;;14.07;;
4089;SDS011;2059;48.538;12.146;2022-11-20T00:56:19;16.97;;;12.60;;
4089;SDS011;2059;48.538;12.146;2022-11-20T01:01:22;16.97;;;12.93;;
4089;SDS011;2059;48.538;12.146;2022-11-20T01:06:26;21.50;;;13.63;;
4089;SDS011;2059;48.538;12.146;2022-11-20T01:11:32;20.57;;;16.23;;
4089;SDS011;2059;48.538;12.146;2022-11-20T01:16:36;23.87;;;16.10;;
4089;SDS011;2059;48.538;12.146;2022-11-20T01:21:39;23.20;;;14.83;;
4089;SDS011;2059;48.538;12.146;2022-11-20T01:26:44;19.70;;;15.03;;
4089;SDS011;2059;48.538;12.146;2022-11-20T01:31:48;18.50;;;14.17;;
4089;SDS011;2059;48.538;12.146;2022-11-20T01:36:50;16.40;;;13.53;;
4089;SDS011;2059;48.538;12.146;2022-11-20T01:41:54;18.73;;;13.77;;
4089;SDS011;2059;48.538;12.146;2022-11-20T01:47:16;15.83;;;12.67;;
4089;SDS011;2059;48.538;12.146;2022-11-20T01:52:23;17.50;;;12.50;;
4089;SDS011;2059;48.538;12.146;2022-11-20T01:57:29;18.90;;;12.87;;
4089;SDS011;2059;48.538;12.146;2022-11-20T02:02:34;17.20;;;12.40;;
4089;SDS011;2059;48.538;12.146;2022-11-20T02:07:37;14.87;;;12.23;;
4089;SDS011;2059;48.538;12.146;2022-11-20T02:12:41;17.73;;;12.40;;
4089;SDS011;2059;48.538;12.146;2022-11-20T02:18:00;15.77;;;12.00;;
4089;SDS011;2059;48.538;12.146;2022-11-20T02:23:03;16.30;;;12.97;;
4089;SDS011;2059;48.538;12.146;2022-11-20T02:28:13;20.13;;;13.13;;
4089;SDS011;2059;48.538;12.146;2022-11-20T02:33:15;16.00;;;12.13;;
4089;SDS011;2059;48.538;12.146;2022-11-20T02:38:17;15.20;;;11.40;;
4089;SDS011;2059;48.538;12.146;2022-11-20T02:43:20;15.23;;;11.87;;
4089;SDS011;2059;48.538;12.146;2022-11-20T02:48:22;15.77;;;11.67;;
4089;SDS011;2059;48.538;12.146;2022-11-20T02:53:24;14.67;;;11.73;;
4089;SDS011;2059;48.538;12.146;2022-11-20T02:58:27;15.07;;;12.27;;
4089;SDS011;2059;48.538;12.146;2022-11-20T03:03:29;15.90;;;11.73;;
4089;SDS011;2059;48.538;12.146;2022-11-20T03:08:30;14.33;;;11.07;;
4089;SDS011;2059;48.538;12.146;2022-11-20T03:13:34;12.17;;;10.80;;
4089;SDS011;2059;48.538;12.146;2022-11-20T03:18:36;15.03;;;11.93;;
4089;SDS011;2059;48.538;12.146;2022-11-20T03:23:38;13.77;;;11.00;;
4089;SDS011;2059;48.538;12.146;2022-11-20T03:28:45;14.57;;;11.57;;
4089;SDS011;2059;48.538;12.146;2022-11-20T03:33:49;12.87;;;10.57;;
4089;SDS011;2059;48.538;12.146;2022-11-20T03:38:52;11.10;;;9.90;;
4089;SDS011;2059;48.538;12.146;2022-11-20T03:43:57;15.27;;;10.63;;
4089;SDS011;2059;48.538;12.146;2022-11-20T03:48:59;12.17;;;10.10;;
4089;SDS011;2059;48.538;12.146;2022-11-20T03:54:03;12.70;;;10.47;;
4089;SDS011;2059;48.538;12.146;2022-11-20T03:59:09;12.53;;;11.20;;
4089;SDS011;2059;48.538;12.146;2022-11-20T04:04:11;13.57;;;11.60;;
4089;SDS011;2059;48.538;12.146;2022-11-20T04:09:13;13.90;;;11.87;;
4089;SDS011;2059;48.538;12.146;2022-11-20T04:14:17;11.63;;;10.40;;
4089;SDS011;2059;48.538;12.146;2022-11-20T04:19:18;12.53;;;11.13;;
4089;SDS011;2059;48.538;12.146;2022-11-20T04:24:20;13.80;;;9.63;;
4089;SDS011;2059;48.538;12.146;2022-11-20T04:29:23;9.30;;;8.30;;
4089;SDS011;2059;48.538;12.146;2022-11-20T04:34:25;8.27;;;7.30;;
4089;SDS011;2059;48.538;12.146;2022-11-20T04:39:27;6.50;;;5.90;;
4089;SDS011;2059;48.538;12.146;2022-11-20T04:44:30;6.40;;;5.90;;
4089;SDS011;2059;48.538;12.146;2022-11-20T04:49:32;6.77;;;5.80;;
4089;SDS011;2059;48.538;12.146;2022-11-20T04:54:34;6.03;;;5.43;;
4089;SDS011;2059;48.538;12.146;2022-11-20T04:59:37;6.70;;;5.80;;
4089;SDS011;2059;48.538;12.146;2022-11-20T05:04:38;6.40;;;5.80;;
4089;SDS011;2059;48.538;12.146;2022-11-20T05:09:40;6.50;;;5.90;;
4089;SDS011;2059;48.538;12.146;2022-11-20T05:14:44;6.13;;;5.53;;
4089;SDS011;2059;48.538;12.146;2022-11-20T05:19:45;5.90;;;5.40;;
4089;SDS011;2059;48.538;12.146;2022-11-20T05:24:47;6.23;;;5.63;;
4089;SDS011;2059;48.538;12.146;2022-11-20T05:29:50;5.40;;;5.00;;
4089;SDS011;2059;48.538;12.146;2022-11-20T05:34:52;6.00;;;5.50;;
4089;SDS011;2059;48.538;12.146;2022-11-20T05:39:54;6.80;;;5.33;;
4089;SDS011;2059;48.538;12.146;2022-11-20T05:44:57;5.10;;;4.70;;
4089;SDS011;2059;48.538;12.146;2022-11-20T05:49:59;5.77;;;5.27;;
4089;SDS011;2059;48.538;12.146;2022-11-20T05:55:01;5.83;;;5.43;;
4089;SDS011;2059;48.538;12.146;2022-11-20T06:00:05;6.27;;;5.67;;
4089;SDS011;2059;48.538;12.146;2022-11-20T06:05:08;5.93;;;5.43;;
4089;SDS011;2059;48.538;12.146;2022-11-20T06:10:10;5.70;;;5.20;;
4089;SDS011;2059;48.538;12.146;2022-11-20T06:15:13;6.13;;;5.53;;
4089;SDS011;2059;48.538;12.146;2022-11-20T06:20:15;6.37;;;5.87;;
4089;SDS011;2059;48.538;12.146;2022-11-20T06:25:17;6.67;;;6.00;;
4089;SDS011;2059;48.538;12.146;2022-11-20T06:30:20;5.40;;;5.00;;
4089;SDS011;2059;48.538;12.146;2022-11-20T06:35:22;5.77;;;5.20;;
4089;SDS011;2059;48.538;12.146;2022-11-20T06:40:24;5.07;;;4.67;;
4089;SDS011;2059;48.538;12.146;2022-11-20T06:45:27;8.13;;;5.30;;
4089;SDS011;2059;48.538;12.146;2022-11-20T06:50:28;7.17;;;4.67;;
4089;SDS011;2059;48.538;12.146;2022-11-20T06:55:30;5.07;;;4.63;;
4089;SDS011;2059;48.538;12.146;2022-11-20T07:00:34;5.80;;;5.20;;
4089;SDS011;2059;48.538;12.146;2022-11-20T07:05:36;5.53;;;5.20;;
4089;SDS011;2059;48.538;12.146;2022-11-20T07:10:39;6.70;;;5.23;;
4089;SDS011;2059;48.538;12.146;2022-11-20T07:15:42;5.40;;;5.00;;
4089;SDS011;2059;48.538;12.146;2022-11-20T07:20:44;6.13;;;4.80;;
4089;SDS011;2059;48.538;12.146;2022-11-20T07:25:46;5.40;;;5.00;;
4089;SDS011;2059;48.538;12.146;2022-11-20T07:30:52;5.20;;;4.80;;
4089;SDS011;2059;48.538;12.146;2022-11-20T07:35:54;5.40;;;5.00;;
4089;SDS011;2059;48.538;12.146;2022-11-20T07:40:56;5.50;;;5.00;;
4089;SDS011;2059;48.538;12.146;2022-11-20T07:46:02;5.13;;;4.60;;
4089;SDS011;2059;48.538;12.146;2022-11-20T07:51:04;6.17;;;5.20;;
4089;SDS011;2059;48.538;12.146;2022-11-20T07:56:06;4.77;;;4.47;;
4089;SDS011;2059;48.538;12.146;2022-11-20T08:01:10;4.83;;;4.50;;
4089;SDS011;2059;48.538;12.146;2022-11-20T08:06:11;4.70;;;4.30;;
4089;SDS011;2059;48.538;12.146;2022-11-20T08:11:14;4.63;;;4.23;;
4089;SDS011;2059;48.538;12.146;2022-11-20T08:16:35;4.33;;;4.07;;
4089;SDS011;2059;48.538;12.146;2022-11-20T08:21:37;4.67;;;4.20;;
4089;SDS011;2059;48.538;12.146;2022-11-20T08:26:39;3.93;;;3.73;;
4089;SDS011;2059;48.538;12.146;2022-11-20T08:31:43;4.30;;;4.00;;
4089;SDS011;2059;48.538;12.146;2022-11-20T08:36:44;4.60;;;4.30;;
4089;SDS011;2059;48.538;12.146;2022-11-20T08:41:46;4.40;;;4.10;;
4089;SDS011;2059;48.538;12.146;2022-11-20T08:46:49;4.50;;;4.20;;
4089;SDS011;2059;48.538;12.146;2022-11-20T08:51:51;4.03;;;3.83;;
4089;SDS011;2059;48.538;12.146;2022-11-20T08:56:55;4.30;;;4.10;;
4089;SDS011;2059;48.538;12.146;2022-11-20T09:01:58;4.93;;;4.53;;
4089;SDS011;2059;48.538;12.146;2022-11-20T09:07:00;4.53;;;4.10;;
4089;SDS011;2059;48.538;12.146;2022-11-20T09:12:02;5.50;;;3.80;;
4089;SDS011;2059;48.538;12.146;2022-11-20T09:17:05;4.10;;;3.90;;
4089;SDS011;2059;48.538;12.146;2022-11-20T09:22:07;5.30;;;4.90;;
4089;SDS011;2059;48.538;12.146;2022-11-20T09:27:09;4.60;;;4.20;;
4089;SDS011;2059;48.538;12.146;2022-11-20T09:32:13;4.57;;;4.27;;
4089;SDS011;2059;48.538;12.146;2022-11-20T09:37:14;4.20;;;4.00;;
4089;SDS011;2059;48.538;12.146;2022-11-20T09:42:28;4.53;;;4.23;;
4089;SDS011;2059;48.538;12.146;2022-11-20T09:47:43;4.40;;;3.93;;
4089;SDS011;2059;48.538;12.146;2022-11-20T09:53:03;4.43;;;4.13;;
4089;SDS011;2059;48.538;12.146;2022-11-20T09:58:16;4.50;;;4.10;;
4089;SDS011;2059;48.538;12.146;2022-11-20T10:03:33;4.80;;;4.50;;
4089;SDS011;2059;48.538;12.146;2022-11-20T10:08:43;5.37;;;4.90;;
4089;SDS011;2059;48.538;12.146;2022-11-20T10:13:52;4.97;;;4.67;;
4089;SDS011;2059;48.538;12.146;2022-11-20T10:19:07;4.70;;;4.40;;
4089;SDS011;2059;48.538;12.146;2022-11-20T10:29:45;4.77;;;4.37;;
4089;SDS011;2059;48.538;12.146;2022-11-20T10:35:03;4.80;;;4.50;;
4089;SDS011;2059;48.538;12.146;2022-11-20T10:40:15;4.40;;;4.10;;
4089;SDS011;2059;48.538;12.146;2022-11-20T10:45:31;4.20;;;3.90;;
4089;SDS011;2059;48.538;12.146;2022-11-20T10:50:59;4.40;;;4.00;;
4089;SDS011;2059;48.538;12.146;2022-11-20T10:56:16;4.07;;;3.80;;
4089;SDS011;2059;48.538;12.146;2022-11-20T11:01:21;3.93;;;3.73;;
4089;SDS011;2059;48.538;12.146;2022-11-20T11:06:27;4.37;;;4.00;;
4089;SDS011;2059;48.538;12.146;2022-11-20T11:11:33;4.67;;;4.37;;
4089;SDS011;2059;48.538;12.146;2022-11-20T11:16:35;4.37;;;4.03;;
4089;SDS011;2059;48.538;12.146;2022-11-20T11:26:56;4.50;;;4.17;;
4089;SDS011;2059;48.538;12.146;2022-11-20T11:55:07;4.43;;;4.03;;
4089;SDS011;2059;48.538;12.146;2022-11-20T12:00:14;3.70;;;3.50;;
4089;SDS011;2059;48.538;12.146;2022-11-20T12:05:18;3.70;;;3.50;;
4089;SDS011;2059;48.538;12.146;2022-11-20T12:10:28;4.10;;;3.80;;
4089;SDS011;2059;48.538;12.146;2022-11-20T12:15:42;3.50;;;3.30;;
4089;SDS011;2059;48.538;12.146;2022-11-20T12:20:50;3.50;;;3.30;;
4089;SDS011;2059;48.538;12.146;2022-11-20T12:26:05;3.33;;;3.20;;
4089;SDS011;2059;48.538;12.146;2022-11-20T12:36:40;3.80;;;3.50;;
4089;SDS011;2059;48.538;12.146;2022-11-20T12:48:10;4.53;;;4.30;;
4089;SDS011;2059;48.538;12.146;2022-11-20T12:53:29;2.77;;;2.67;;
4089;SDS011;2059;48.538;12.146;2022-11-20T12:58:42;3.73;;;3.63;;
4089;SDS011;2059;48.538;12.146;2022-11-20T13:03:54;4.63;;;4.43;;
4089;SDS011;2059;48.538;12.146;2022-11-20T13:09:00;3.00;;;2.80;;
4089;SDS011;2059;48.538;12.146;2022-11-20T13:14:07;2.87;;;2.77;;
4089;SDS011;2059;48.538;12.146;2022-11-20T13:19:18;3.10;;;3.00;;
4089;SDS011;2059;48.538;12.146;2022-11-20T13:24:21;3.40;;;3.10;;
4089;SDS011;2059;48.538;12.146;2022-11-20T13:29:27;3.07;;;2.97;;
4089;SDS011;2059;48.538;12.146;2022-11-20T13:34:30;2.63;;;2.53;;
4089;SDS011;2059;48.538;12.146;2022-11-20T13:39:33;2.80;;;2.70;;
4089;SDS011;2059;48.538;12.146;2022-11-20T13:44:38;2.80;;;2.70;;
4089;SDS011;2059;48.538;12.146;2022-11-20T13:49:43;3.00;;;2.80;;
4089;SDS011;2059;48.538;12.146;2022-11-20T13:54:52;3.40;;;3.10;;
4089;SDS011;2059;48.538;12.146;2022-11-20T14:00:08;3.73;;;3.40;;
4089;SDS011;2059;48.538;12.146;2022-11-20T14:05:20;4.70;;;4.50;;
4089;SDS011;2059;48.538;12.146;2022-11-20T14:10:25;3.00;;;2.90;;
4089;SDS011;2059;48.538;12.146;2022-11-20T14:15:31;2.47;;;2.37;;
4089;SDS011;2059;48.538;12.146;2022-11-20T14:20:35;3.90;;;3.60;;
4089;SDS011;2059;48.538;12.146;2022-11-20T14:25:41;3.10;;;2.90;;
4089;SDS011;2059;48.538;12.146;2022-11-20T14:30:47;3.37;;;3.17;;
4089;SDS011;2059;48.538;12.146;2022-11-20T14:35:50;3.30;;;3.20;;
4089;SDS011;2059;48.538;12.146;2022-11-20T14:41:04;3.70;;;3.43;;
4089;SDS011;2059;48.538;12.146;2022-11-20T14:46:09;3.10;;;3.00;;
4089;SDS011;2059;48.538;12.146;2022-11-20T14:51:18;3.30;;;3.20;;
4089;SDS011;2059;48.538;12.146;2022-11-20T14:56:27;3.03;;;2.93;;
4089;SDS011;2059;48.538;12.146;2022-11-20T15:01:30;3.13;;;2.93;;
4089;SDS011;2059;48.538;12.146;2022-11-20T15:06:33;3.10;;;3.00;;
4089;SDS011;2059;48.538;12.146;2022-11-20T15:11:35;2.93;;;2.83;;
4089;SDS011;2059;48.538;12.146;2022-11-20T15:16:39;3.67;;;3.40;;
4089;SDS011;2059;48.538;12.146;2022-11-20T15:21:41;3.40;;;3.20;;
4089;SDS011;2059;48.538;12.146;2022-11-20T15:26:43;3.10;;;3.00;;
4089;SDS011;2059;48.538;12.146;2022-11-20T15:31:46;3.37;;;3.17;;
4089;SDS011;2059;48.538;12.146;2022-11-20T15:36:50;3.50;;;3.30;;
4089;SDS011;2059;48.538;12.146;2022-11-20T15:41:53;3.20;;;3.00;;
4089;SDS011;2059;48.538;12.146;2022-11-20T15:46:56;3.63;;;3.43;;
4089;SDS011;2059;48.538;12.146;2022-11-20T15:51:58;3.40;;;3.10;;
4089;SDS011;2059;48.538;12.146;2022-11-20T15:57:00;3.70;;;3.50;;
4089;SDS011;2059;48.538;12.146;2022-11-20T16:02:07;3.53;;;3.33;;
4089;SDS011;2059;48.538;12.146;2022-11-20T16:07:11;5.37;;;5.07;;
4089;SDS011;2059;48.538;12.146;2022-11-20T16:12:14;7.37;;;6.80;;
4089;SDS011;2059;48.538;12.146;2022-11-20T16:17:37;4.40;;;4.10;;
4089;SDS011;2059;48.538;12.146;2022-11-20T16:22:43;5.53;;;5.20;;
4089;SDS011;2059;48.538;12.146;2022-11-20T16:27:45;5.17;;;4.77;;
4089;SDS011;2059;48.538;12.146;2022-11-20T16:32:49;4.90;;;4.50;;
4089;SDS011;2059;48.538;12.146;2022-11-20T16:37:50;21.70;;;12.03;;
4089;SDS011;2059;48.538;12.146;2022-11-20T16:42:52;5.23;;;4.70;;
4089;SDS011;2059;48.538;12.146;2022-11-20T16:47:56;5.40;;;5.00;;
4089;SDS011;2059;48.538;12.146;2022-11-20T16:52:57;6.10;;;5.60;;
4089;SDS011;2059;48.538;12.146;2022-11-20T16:57:59;5.83;;;5.33;;
4089;SDS011;2059;48.538;12.146;2022-11-20T17:03:03;4.40;;;4.10;;
4089;SDS011;2059;48.538;12.146;2022-11-20T17:08:05;6.10;;;5.60;;
4089;SDS011;2059;48.538;12.146;2022-11-20T17:13:07;6.70;;;5.37;;
4089;SDS011;2059;48.538;12.146;2022-11-20T17:18:10;5.87;;;5.37;;
4089;SDS011;2059;48.538;12.146;2022-11-20T17:23:12;5.73;;;5.23;;
4089;SDS011;2059;48.538;12.146;2022-11-20T17:28:14;10.63;;;8.70;;
4089;SDS011;2059;48.538;12.146;2022-11-20T17:33:17;13.30;;;10.10;;
4089;SDS011;2059;48.538;12.146;2022-11-20T17:38:19;10.03;;;8.60;;
4089;SDS011;2059;48.538;12.146;2022-11-20T17:43:21;7.53;;;6.57;;
4089;SDS011;2059;48.538;12.146;2022-11-20T17:48:24;8.83;;;7.93;;
4089;SDS011;2059;48.538;12.146;2022-11-20T17:53:27;5.33;;;4.90;;
4089;SDS011;2059;48.538;12.146;2022-11-20T17:58:33;6.20;;;5.60;;
4089;SDS011;2059;48.538;12.146;2022-11-20T18:03:36;7.43;;;6.63;;
4089;SDS011;2059;48.538;12.146;2022-11-20T18:08:38;7.10;;;6.40;;
4089;SDS011;2059;48.538;12.146;2022-11-20T18:13:41;7.33;;;6.13;;
4089;SDS011;2059;48.538;12.146;2022-11-20T18:19:02;5.33;;;4.93;;
4089;SDS011;2059;48.538;12.146;2022-11-20T18:24:05;5.97;;;5.43;;
4089;SDS011;2059;48.538;12.146;2022-11-20T18:29:07;6.37;;;5.70;;
4089;SDS011;2059;48.538;12.146;2022-11-20T18:34:11;5.03;;;4.53;;
4089;SDS011;2059;48.538;12.146;2022-11-20T18:39:13;4.13;;;3.83;;
4089;SDS011;2059;48.538;12.146;2022-11-20T18:44:16;4.80;;;4.40;;
4089;SDS011;2059;48.538;12.146;2022-11-20T18:49:38;4.20;;;3.90;;
4089;SDS011;2059;48.538;12.146;2022-11-20T18:54:39;5.60;;;3.57;;
4089;SDS011;2059;48.538;12.146;2022-11-20T18:59:41;4.10;;;3.80;;
4089;SDS011;2059;48.538;12.146;2022-11-20T19:04:45;4.80;;;4.40;;
4089;SDS011;2059;48.538;12.146;2022-11-20T19:09:49;5.57;;;5.07;;
4089;SDS011;2059;48.538;12.146;2022-11-20T19:14:52;9.30;;;7.57;;
4089;SDS011;2059;48.538;12.146;2022-11-20T19:19:56;8.27;;;7.27;;
4089;SDS011;2059;48.538;12.146;2022-11-20T19:24:57;9.60;;;7.13;;
4089;SDS011;2059;48.538;12.146;2022-11-20T19:30:02;6.23;;;5.73;;
4089;SDS011;2059;48.538;12.146;2022-11-20T19:35:06;11.03;;;8.30;;
4089;SDS011;2059;48.538;12.146;2022-11-20T19:40:09;11.93;;;9.23;;
4089;SDS011;2059;48.538;12.146;2022-11-20T19:45:11;9.73;;;7.10;;
4089;SDS011;2059;48.538;12.146;2022-11-20T19:50:14;5.43;;;5.03;;
4089;SDS011;2059;48.538;12.146;2022-11-20T19:55:16;5.97;;;5.47;;
4089;SDS011;2059;48.538;12.146;2022-11-20T20:00:18;6.00;;;5.50;;
4089;SDS011;2059;48.538;12.146;2022-11-20T20:05:22;5.50;;;5.07;;
4089;SDS011;2059;48.538;12.146;2022-11-20T20:10:23;6.10;;;5.60;;
4089;SDS011;2059;48.538;12.146;2022-11-20T20:15:25;7.53;;;6.77;;
4089;SDS011;2059;48.538;12.146;2022-11-20T20:20:29;10.40;;;8.00;;
4089;SDS011;2059;48.538;12.146;2022-11-20T20:25:34;8.90;;;7.67;;
4089;SDS011;2059;48.538;12.146;2022-11-20T20:30:37;8.87;;;7.97;;
4089;SDS011;2059;48.538;12.146;2022-11-20T20:35:41;8.10;;;7.30;;
4089;SDS011;2059;48.538;12.146;2022-11-20T20:40:46;10.40;;;9.20;;
4089;SDS011;2059;48.538;12.146;2022-11-20T20:45:49;8.10;;;6.97;;
4089;SDS011;2059;48.538;12.146;2022-11-20T20:50:53;7.77;;;6.90;;
4089;SDS011;2059;48.538;12.146;2022-11-20T20:55:56;9.90;;;8.90;;
4089;SDS011;2059;48.538;12.146;2022-11-20T21:01:00;7.63;;;6.80;;
4089;SDS011;2059;48.538;12.146;2022-11-20T21:06:04;8.97;;;7.27;;
4089;SDS011;2059;48.538;12.146;2022-11-20T21:11:07;7.67;;;6.97;;
4089;SDS011;2059;48.538;12.146;2022-11-20T21:16:11;7.80;;;7.00;;
4089;SDS011;2059;48.538;12.146;2022-11-20T21:21:16;8.20;;;6.80;;
4089;SDS011;2059;48.538;12.146;2022-11-20T21:26:35;7.40;;;6.70;;
4089;SDS011;2059;48.538;12.146;2022-11-20T21:31:37;8.93;;;6.10;;
4089;SDS011;2059;48.538;12.146;2022-11-20T21:36:41;6.80;;;6.10;;
4089;SDS011;2059;48.538;12.146;2022-11-20T21:41:43;8.60;;;7.53;;
4089;SDS011;2059;48.538;12.146;2022-11-20T21:46:45;7.73;;;7.00;;
4089;SDS011;2059;48.538;12.146;2022-11-20T21:51:48;8.63;;;7.53;;
4089;SDS011;2059;48.538;12.146;2022-11-20T21:56:50;10.10;;;8.27;;
4089;SDS011;2059;48.538;12.146;2022-11-20T22:01:52;11.90;;;8.57;;
4089;SDS011;2059;48.538;12.146;2022-11-20T22:06:56;8.83;;;7.63;;
4089;SDS011;2059;48.538;12.146;2022-11-20T22:11:58;13.83;;;10.80;;
4089;SDS011;2059;48.538;12.146;2022-11-20T22:17:02;8.37;;;7.50;;
4089;SDS011;2059;48.538;12.146;2022-11-20T22:22:05;8.17;;;7.47;;
4089;SDS011;2059;48.538;12.146;2022-11-20T22:27:09;9.23;;;8.27;;
4089;SDS011;2059;48.538;12.146;2022-11-20T22:32:11;8.07;;;7.33;;
4089;SDS011;2059;48.538;12.146;2022-11-20T22:42:24;4.93;;;4.43;;
4089;SDS011;2059;48.538;12.146;2022-11-20T22:47:26;5.23;;;4.90;;
4089;SDS011;2059;48.538;12.146;2022-11-20T22:52:28;4.40;;;4.20;;
4089;SDS011;2059;48.538;12.146;2022-11-20T22:57:31;4.17;;;3.97;;
4089;SDS011;2059;48.538;12.146;2022-11-20T23:02:34;7.90;;;4.10;;
4089;SDS011;2059;48.538;12.146;2022-11-20T23:07:36;4.47;;;4.17;;
4089;SDS011;2059;48.538;12.146;2022-11-20T23:12:39;4.00;;;3.80;;
4089;SDS011;2059;48.538;12.146;2022-11-20T23:17:40;3.67;;;3.50;;
4089;SDS011;2059;48.538;12.146;2022-11-20T23:22:42;4.07;;;3.70;;
4089;SDS011;2059;48.538;12.146;2022-11-20T23:27:45;4.23;;;4.03;;
4089;SDS011;2059;48.538;12.146;2022-11-20T23:32:47;4.20;;;4.00;;
4089;SDS011;2059;48.538;12.146;2022-11-20T23:37:49;4.20;;;3.73;;
4089;SDS011;2059;48.538;12.146;2022-11-20T23:42:53;3.67;;;3.57;;
4089;SDS011;2059;48.538;12.146;2022-11-20T23:48:12;4.13;;;3.83;;
4089;SDS011;2059;48.538;12.146;2022-11-20T23:53:15;2.43;;;2.33;;
4089;SDS011;2059;48.538;12.146;2022-11-20T23:58:20;2.63;;;2.43;;
